createdAt,value
2023-05-24T00:00:50.413Z,42.37
2023-05-24T00:01:50.388Z,42.37
2023-05-24T00:02:50.448Z,42.38
2023-05-24T00:03:50.474Z,42.39
2023-05-24T00:04:50.425Z,42.38
2023-05-24T00:05:50.431Z,42.35
2023-05-24T00:06:50.348Z,42.36
2023-05-24T00:07:50.335Z,42.37
2023-05-24T00:08:50.341Z,42.38
2023-05-24T00:09:50.333Z,42.35
2023-05-24T00:10:50.322Z,42.37
2023-05-24T00:11:50.326Z,42.35
2023-05-24T00:12:50.310Z,42.33
2023-05-24T00:13:50.305Z,42.34
2023-05-24T00:14:50.299Z,42.36
2023-05-24T00:15:50.292Z,42.33
2023-05-24T00:16:50.314Z,42.34
2023-05-24T00:17:50.301Z,42.33
2023-05-24T00:18:50.276Z,42.33
2023-05-24T00:19:50.260Z,42.33
2023-05-24T00:20:50.280Z,42.31
2023-05-24T00:21:50.232Z,42.33
2023-05-24T00:22:50.262Z,42.32
2023-05-24T00:23:50.246Z,42.32
2023-05-24T00:24:50.272Z,42.30
2023-05-24T00:25:50.348Z,42.30
2023-05-24T00:26:50.210Z,42.32
2023-05-24T00:27:50.231Z,42.32
2023-05-24T00:28:50.212Z,42.29
2023-05-24T00:29:50.190Z,42.31
2023-05-24T00:30:50.209Z,42.30
2023-05-24T00:31:50.169Z,42.31
2023-05-24T00:32:50.210Z,42.30
2023-05-24T00:33:50.176Z,42.27
2023-05-24T00:34:50.147Z,42.30
2023-05-24T00:35:50.185Z,42.27
2023-05-24T00:36:50.162Z,42.28
2023-05-24T00:37:50.144Z,42.26
2023-05-24T00:38:50.116Z,42.27
2023-05-24T00:39:50.134Z,42.27
2023-05-24T00:40:50.176Z,42.26
2023-05-24T00:41:50.101Z,42.26
2023-05-24T00:42:50.117Z,42.25
2023-05-24T00:43:50.120Z,42.24
2023-05-24T00:44:50.116Z,42.24
2023-05-24T00:45:50.130Z,42.24
2023-05-24T00:46:50.054Z,42.26
2023-05-24T00:47:50.105Z,42.25
2023-05-24T00:48:50.068Z,42.23
2023-05-24T00:49:50.057Z,42.23
2023-05-24T00:50:50.056Z,42.25
2023-05-24T00:51:50.043Z,42.24
2023-05-24T00:52:50.046Z,42.24
2023-05-24T00:53:50.024Z,42.24
2023-05-24T00:54:50.033Z,42.26
2023-05-24T00:55:50.025Z,42.22
2023-05-24T00:56:50.002Z,42.24
2023-05-24T00:57:50.022Z,42.20
2023-05-24T00:58:49.978Z,42.22
2023-05-24T00:59:49.988Z,42.23
2023-05-24T01:00:49.952Z,42.21
2023-05-24T01:01:50.043Z,42.21
2023-05-24T01:02:49.987Z,42.22
2023-05-24T01:03:50.073Z,42.20
2023-05-24T01:04:49.950Z,42.23
2023-05-24T01:05:49.973Z,42.19
2023-05-24T01:06:49.939Z,42.20
2023-05-24T01:07:49.959Z,42.21
2023-05-24T01:08:49.902Z,42.18
2023-05-24T01:09:49.910Z,42.19
2023-05-24T01:10:49.918Z,42.17
2023-05-24T01:11:49.863Z,42.19
2023-05-24T01:12:49.881Z,42.18
2023-05-24T01:13:49.887Z,42.18
2023-05-24T01:14:49.850Z,42.18
2023-05-24T01:15:49.895Z,42.18
2023-05-24T01:16:49.864Z,42.18
2023-05-24T01:17:49.916Z,42.15
2023-05-24T01:18:49.847Z,42.17
2023-05-24T01:19:50.030Z,42.17
2023-05-24T01:20:49.916Z,42.16
2023-05-24T01:21:49.841Z,42.18
2023-05-24T01:22:49.831Z,42.18
2023-05-24T01:23:49.837Z,42.16
2023-05-24T01:24:49.793Z,42.15
2023-05-24T01:25:49.883Z,42.15
2023-05-24T01:26:49.771Z,42.16
2023-05-24T01:27:49.799Z,42.12
2023-05-24T01:28:49.757Z,42.13
2023-05-24T01:29:49.739Z,42.13
2023-05-24T01:30:49.819Z,42.14
2023-05-24T01:31:49.794Z,42.14
2023-05-24T01:32:49.742Z,42.15
2023-05-24T01:33:49.723Z,42.15
2023-05-24T01:34:49.730Z,42.12
2023-05-24T01:35:49.761Z,42.12
2023-05-24T01:36:49.721Z,42.13
2023-05-24T01:37:49.706Z,42.13
2023-05-24T01:38:49.706Z,42.12
2023-05-24T01:39:49.686Z,42.11
2023-05-24T01:40:49.783Z,42.13
2023-05-24T01:41:49.679Z,42.11
2023-05-24T01:42:49.679Z,42.10
2023-05-24T01:43:49.682Z,42.09
2023-05-24T01:44:49.684Z,42.11
2023-05-24T01:45:49.688Z,42.10
2023-05-24T01:46:49.682Z,42.11
2023-05-24T01:47:49.674Z,42.10
2023-05-24T01:48:49.642Z,42.09
2023-05-24T01:49:49.648Z,42.11
2023-05-24T01:50:49.635Z,42.07
2023-05-24T01:51:49.683Z,42.10
2023-05-24T01:52:49.598Z,42.08
2023-05-24T01:53:49.569Z,42.06
2023-05-24T01:54:49.582Z,42.08
2023-05-24T01:55:49.597Z,42.07
2023-05-24T01:56:49.571Z,42.07
2023-05-24T01:57:49.577Z,42.08
2023-05-24T01:58:49.550Z,42.07
2023-05-24T01:59:49.540Z,42.07
2023-05-24T02:00:49.581Z,42.05
2023-05-24T02:01:49.570Z,42.05
2023-05-24T02:02:49.670Z,42.04
2023-05-24T02:03:49.524Z,42.05
2023-05-24T02:04:49.556Z,42.05
2023-05-24T02:05:49.488Z,42.05
2023-05-24T02:06:49.498Z,42.05
2023-05-24T02:07:49.522Z,42.06
2023-05-24T02:08:49.506Z,42.03
2023-05-24T02:09:49.492Z,42.04
2023-05-24T02:10:49.499Z,42.05
2023-05-24T02:11:49.502Z,42.05
2023-05-24T02:12:49.494Z,42.04
2023-05-24T02:13:49.453Z,42.02
2023-05-24T02:14:49.498Z,42.03
2023-05-24T02:15:49.493Z,42.04
2023-05-24T02:16:49.557Z,42.01
2023-05-24T02:17:49.556Z,42.04
2023-05-24T02:18:49.542Z,42.02
2023-05-24T02:19:49.618Z,42.02
2023-05-24T02:20:49.613Z,42.01
2023-05-24T02:21:49.621Z,42.01
2023-05-24T02:22:49.634Z,42.01
2023-05-24T02:23:49.683Z,42.00
2023-05-24T02:24:49.659Z,42.04
2023-05-24T02:25:49.693Z,42.01
2023-05-24T02:26:49.702Z,42.00
2023-05-24T02:27:49.721Z,42.02
2023-05-24T02:28:49.724Z,42.00
2023-05-24T02:29:49.756Z,41.99
2023-05-24T02:30:49.811Z,41.96
2023-05-24T02:31:49.789Z,41.97
2023-05-24T02:32:49.882Z,41.97
2023-05-24T02:33:49.835Z,41.99
2023-05-24T02:34:49.861Z,42.00
2023-05-24T02:35:49.861Z,41.98
2023-05-24T02:36:49.915Z,41.97
2023-05-24T02:37:49.926Z,41.97
2023-05-24T02:38:49.951Z,41.98
2023-05-24T02:39:49.983Z,41.97
2023-05-24T02:40:49.995Z,41.96
2023-05-24T02:41:50.040Z,41.96
2023-05-24T02:42:50.041Z,41.95
2023-05-24T02:43:50.062Z,41.96
2023-05-24T02:44:50.055Z,41.96
2023-05-24T02:45:50.204Z,41.96
2023-05-24T02:46:50.095Z,41.97
2023-05-24T02:47:50.172Z,41.97
2023-05-24T02:48:50.162Z,41.94
2023-05-24T02:49:50.185Z,41.95
2023-05-24T02:50:50.178Z,41.93
2023-05-24T02:51:50.189Z,41.95
2023-05-24T02:52:50.269Z,41.93
2023-05-24T02:53:50.237Z,41.93
2023-05-24T02:54:50.289Z,41.94
2023-05-24T02:55:50.312Z,41.91
2023-05-24T02:56:50.288Z,41.93
2023-05-24T02:57:50.300Z,41.93
2023-05-24T02:58:50.343Z,41.96
2023-05-24T02:59:50.352Z,41.92
2023-05-24T03:00:50.410Z,41.93
2023-05-24T03:01:50.431Z,41.92
2023-05-24T03:02:50.546Z,41.92
2023-05-24T03:03:50.545Z,41.91
2023-05-24T03:04:50.482Z,41.92
2023-05-24T03:05:50.494Z,41.93
2023-05-24T03:06:50.516Z,41.93
2023-05-24T03:07:50.548Z,41.91
2023-05-24T03:08:50.583Z,41.90
2023-05-24T03:09:50.621Z,41.90
2023-05-24T03:10:50.622Z,41.93
2023-05-24T03:11:50.670Z,41.91
2023-05-24T03:12:50.671Z,41.92
2023-05-24T03:13:50.699Z,41.88
2023-05-24T03:14:50.725Z,41.90
2023-05-24T03:15:50.825Z,41.89
2023-05-24T03:16:50.795Z,41.88
2023-05-24T03:17:50.848Z,41.89
2023-05-24T03:18:50.878Z,41.90
2023-05-24T03:19:50.886Z,41.88
2023-05-24T03:20:50.899Z,41.90
2023-05-24T03:21:50.933Z,41.88
2023-05-24T03:22:50.914Z,41.86
2023-05-24T03:23:50.973Z,41.87
2023-05-24T03:24:50.965Z,41.86
2023-05-24T03:25:51.034Z,41.88
2023-05-24T03:26:51.045Z,41.88
2023-05-24T03:27:51.053Z,41.88
2023-05-24T03:28:51.074Z,41.86
2023-05-24T03:29:51.124Z,41.86
2023-05-24T03:30:51.162Z,41.86
2023-05-24T03:31:51.145Z,41.88
2023-05-24T03:32:51.231Z,41.85
2023-05-24T03:33:51.196Z,41.86
2023-05-24T03:34:51.250Z,41.87
2023-05-24T03:35:51.250Z,41.84
2023-05-24T03:36:51.290Z,41.87
2023-05-24T03:37:51.331Z,41.87
2023-05-24T03:38:51.361Z,41.85
2023-05-24T03:39:51.369Z,41.86
2023-05-24T03:40:51.397Z,41.84
2023-05-24T03:41:51.437Z,41.83
2023-05-24T03:42:51.434Z,41.82
2023-05-24T03:43:51.464Z,41.84
2023-05-24T03:44:51.485Z,41.86
2023-05-24T03:45:51.565Z,41.83
2023-05-24T03:46:51.539Z,41.83
2023-05-24T03:47:51.611Z,41.83
2023-05-24T03:48:51.592Z,41.83
2023-05-24T03:49:51.594Z,41.82
2023-05-24T03:50:51.631Z,41.84
2023-05-24T03:51:51.684Z,41.80
2023-05-24T03:52:51.680Z,41.83
2023-05-24T03:53:51.719Z,41.83
2023-05-24T03:54:51.754Z,41.83
2023-05-24T03:55:51.767Z,41.79
2023-05-24T03:56:51.759Z,41.80
2023-05-24T03:57:51.831Z,41.79
2023-05-24T03:58:51.827Z,41.81
2023-05-24T03:59:51.860Z,41.80
2023-05-24T04:00:51.907Z,41.80
2023-05-24T04:01:51.976Z,41.79
2023-05-24T04:02:52.070Z,41.78
2023-05-24T04:03:52.040Z,41.77
2023-05-24T04:04:51.994Z,41.79
2023-05-24T04:05:52.045Z,41.78
2023-05-24T04:06:52.079Z,41.80
2023-05-24T04:07:52.088Z,41.79
2023-05-24T04:08:52.126Z,41.79
2023-05-24T04:09:52.159Z,41.78
2023-05-24T04:10:52.163Z,41.79
2023-05-24T04:11:52.175Z,41.76
2023-05-24T04:12:52.218Z,41.80
2023-05-24T04:13:52.236Z,41.78
2023-05-24T04:14:52.313Z,41.78
2023-05-24T04:15:52.353Z,41.76
2023-05-24T04:16:52.398Z,41.77
2023-05-24T04:17:52.439Z,41.76
2023-05-24T04:18:52.591Z,41.75
2023-05-24T04:19:52.437Z,41.77
2023-05-24T04:20:52.494Z,41.73
2023-05-24T04:21:52.496Z,41.78
2023-05-24T04:22:52.525Z,41.77
2023-05-24T04:23:52.602Z,41.74
2023-05-24T04:24:52.758Z,41.74
2023-05-24T04:25:52.609Z,41.76
2023-05-24T04:26:52.624Z,41.77
2023-05-24T04:27:52.673Z,41.75
2023-05-24T04:28:52.697Z,41.75
2023-05-24T04:29:52.734Z,41.73
2023-05-24T04:30:52.773Z,41.75
2023-05-24T04:31:52.802Z,41.72
2023-05-24T04:32:52.898Z,41.73
2023-05-24T04:33:52.865Z,41.71
2023-05-24T04:34:52.870Z,41.71
2023-05-24T04:35:52.935Z,41.74
2023-05-24T04:36:52.947Z,41.73
2023-05-24T04:37:52.969Z,41.72
2023-05-24T04:38:52.999Z,41.71
2023-05-24T04:39:53.036Z,41.72
2023-05-24T04:40:53.031Z,41.73
2023-05-24T04:41:53.081Z,41.74
2023-05-24T04:42:53.127Z,41.70
2023-05-24T04:43:53.129Z,41.69
2023-05-24T04:44:53.184Z,41.69
2023-05-24T04:45:53.214Z,41.71
2023-05-24T04:46:53.254Z,41.71
2023-05-24T04:47:53.281Z,41.72
2023-05-24T04:48:53.256Z,41.70
2023-05-24T04:49:53.301Z,41.71
2023-05-24T04:50:53.345Z,41.71
2023-05-24T04:51:55.119Z,41.71
2023-05-24T04:52:53.411Z,41.69
2023-05-24T04:53:53.432Z,41.72
2023-05-24T04:54:53.447Z,41.69
2023-05-24T04:55:53.502Z,41.69
2023-05-24T04:56:53.514Z,41.68
2023-05-24T04:57:53.549Z,41.68
2023-05-24T04:58:53.580Z,41.68
2023-05-24T04:59:53.618Z,41.67
2023-05-24T05:00:53.637Z,41.67
2023-05-24T05:01:53.689Z,41.67
2023-05-24T05:02:53.747Z,41.66
2023-05-24T05:03:53.703Z,41.67
2023-05-24T05:04:53.713Z,41.66
2023-05-24T05:05:53.769Z,41.66
2023-05-24T05:06:53.762Z,41.66
2023-05-24T05:07:53.818Z,41.65
2023-05-24T05:08:53.879Z,41.69
2023-05-24T05:09:53.864Z,41.66
2023-05-24T05:10:53.879Z,41.65
2023-05-24T05:11:53.890Z,41.64
2023-05-24T05:12:53.947Z,41.65
2023-05-24T05:13:53.999Z,41.63
2023-05-24T05:14:53.984Z,41.64
2023-05-24T05:15:54.020Z,41.64
2023-05-24T05:16:54.207Z,41.67
2023-05-24T05:17:54.149Z,41.64
2023-05-24T05:18:54.121Z,41.63
2023-05-24T05:19:54.176Z,41.65
2023-05-24T05:20:54.192Z,41.63
2023-05-24T05:21:54.214Z,41.64
2023-05-24T05:22:54.263Z,41.63
2023-05-24T05:23:54.270Z,41.62
2023-05-24T05:24:54.272Z,41.61
2023-05-24T05:25:54.307Z,41.62
2023-05-24T05:26:54.363Z,41.62
2023-05-24T05:27:54.396Z,41.63
2023-05-24T05:28:54.390Z,41.62
2023-05-24T05:29:54.416Z,41.62
2023-05-24T05:30:54.438Z,41.62
2023-05-24T05:31:54.517Z,41.60
2023-05-24T05:32:54.619Z,41.60
2023-05-24T05:33:54.535Z,41.59
2023-05-24T05:34:54.547Z,41.62
2023-05-24T05:35:55.080Z,41.60
2023-05-24T05:36:54.617Z,41.61
2023-05-24T05:37:54.664Z,41.59
2023-05-24T05:38:54.753Z,41.61
2023-05-24T05:39:54.740Z,41.59
2023-05-24T05:40:54.794Z,41.58
2023-05-24T05:41:54.758Z,41.57
2023-05-24T05:42:54.809Z,41.60
2023-05-24T05:43:54.849Z,41.62
2023-05-24T05:44:54.893Z,41.60
2023-05-24T05:45:54.917Z,41.59
2023-05-24T05:46:54.953Z,41.58
2023-05-24T05:47:54.965Z,41.71
2023-05-24T05:48:55.018Z,41.67
2023-05-24T05:49:55.028Z,41.69
2023-05-24T05:50:55.077Z,41.71
2023-05-24T05:51:55.100Z,41.86
2023-05-24T05:52:55.137Z,41.96
2023-05-24T05:53:55.160Z,42.04
2023-05-24T05:54:55.231Z,42.69
2023-05-24T05:55:55.253Z,42.82
2023-05-24T05:56:55.223Z,43.25
2023-05-24T05:57:55.245Z,43.67
2023-05-24T05:58:55.292Z,44.32
2023-05-24T05:59:55.352Z,43.92
2023-05-24T06:00:55.459Z,44.99
2023-05-24T06:01:55.393Z,45.21
2023-05-24T06:02:55.511Z,45.94
2023-05-24T06:03:55.611Z,45.52
2023-05-24T06:04:55.632Z,44.60
2023-05-24T06:05:55.511Z,44.64
2023-05-24T06:06:55.516Z,44.68
2023-05-24T06:07:55.529Z,44.63
2023-05-24T06:08:55.531Z,44.50
2023-05-24T06:09:55.565Z,44.38
2023-05-24T06:10:55.720Z,44.28
2023-05-24T06:11:55.703Z,44.20
2023-05-24T06:12:55.744Z,44.19
2023-05-24T06:13:55.814Z,44.15
2023-05-24T06:14:55.851Z,44.43
2023-05-24T06:15:55.922Z,44.34
2023-05-24T06:16:57.813Z,44.44
2023-05-24T06:17:55.928Z,44.53
2023-05-24T06:19:05.470Z,44.62
2023-05-24T06:19:56.898Z,45.90
2023-05-24T06:20:55.869Z,45.18
2023-05-24T06:21:55.856Z,44.85
2023-05-24T06:22:55.869Z,45.02
2023-05-24T06:23:55.894Z,44.95
2023-05-24T06:24:56.532Z,44.92
2023-05-24T06:25:55.880Z,44.98
2023-05-24T06:26:55.853Z,45.32
2023-05-24T06:27:55.827Z,45.34
2023-05-24T06:28:55.802Z,45.15
2023-05-24T06:29:55.839Z,45.36
2023-05-24T06:30:55.842Z,46.21
2023-05-24T06:31:55.861Z,45.81
2023-05-24T06:32:55.837Z,45.38
2023-05-24T06:34:03.868Z,45.65
2023-05-24T06:34:56.794Z,45.69
2023-05-24T06:35:55.782Z,45.64
2023-05-24T06:36:55.765Z,45.46
2023-05-24T06:37:55.726Z,45.16
2023-05-24T06:38:55.760Z,45.21
2023-05-24T06:39:55.752Z,44.95
2023-05-24T06:40:55.733Z,45.01
2023-05-24T06:41:55.763Z,45.63
2023-05-24T06:42:55.701Z,45.31
2023-05-24T06:43:55.728Z,45.37
2023-05-24T06:44:55.684Z,45.36
2023-05-24T06:45:55.718Z,45.10
2023-05-24T06:46:55.782Z,45.15
2023-05-24T06:47:55.734Z,45.16
2023-05-24T06:48:55.825Z,45.21
2023-05-24T06:49:55.637Z,45.09
2023-05-24T06:50:55.646Z,45.02
2023-05-24T06:51:55.664Z,45.20
2023-05-24T06:52:55.645Z,44.72
2023-05-24T06:53:55.627Z,44.46
2023-05-24T06:54:55.656Z,44.49
2023-05-24T06:55:57.609Z,44.38
2023-05-24T06:56:55.702Z,44.25
2023-05-24T06:57:55.706Z,43.95
2023-05-24T06:58:55.726Z,43.89
2023-05-24T06:59:55.760Z,43.36
2023-05-24T07:00:55.817Z,43.41
2023-05-24T07:01:55.800Z,43.42
2023-05-24T07:02:55.894Z,43.50
2023-05-24T07:03:55.867Z,43.41
2023-05-24T07:04:56.114Z,43.56
2023-05-24T07:05:55.973Z,43.35
2023-05-24T07:06:56.043Z,43.44
2023-05-24T07:07:56.077Z,43.53
2023-05-24T07:08:56.139Z,43.50
2023-05-24T07:09:56.208Z,43.58
2023-05-24T07:10:56.275Z,43.65
2023-05-24T07:11:56.346Z,43.66
2023-05-24T07:12:56.370Z,43.65
2023-05-24T07:13:56.451Z,43.63
2023-05-24T07:14:56.512Z,43.61
2023-05-24T07:15:56.596Z,43.62
2023-05-24T07:16:56.674Z,43.67
2023-05-24T07:17:56.801Z,43.72
2023-05-24T07:18:56.758Z,43.76
2023-05-24T07:19:56.898Z,43.81
2023-05-24T07:20:56.912Z,43.82
2023-05-24T07:21:56.946Z,43.82
2023-05-24T07:22:56.992Z,43.87
2023-05-24T07:23:57.017Z,43.86
2023-05-24T07:24:57.084Z,43.89
2023-05-24T07:25:57.109Z,43.91
2023-05-24T07:26:57.126Z,43.94
2023-05-24T07:27:57.166Z,43.96
2023-05-24T07:28:57.211Z,43.97
2023-05-24T07:29:57.240Z,43.95
2023-05-24T07:30:57.285Z,43.95
2023-05-24T07:31:57.334Z,43.95
2023-05-24T07:32:57.356Z,43.99
2023-05-24T07:33:57.352Z,43.96
2023-05-24T07:34:57.360Z,44.01
2023-05-24T07:35:57.431Z,44.00
2023-05-24T07:36:57.456Z,43.99
2023-05-24T07:37:57.497Z,43.96
2023-05-24T07:38:57.510Z,43.97
2023-05-24T07:39:57.543Z,43.97
2023-05-24T07:40:57.595Z,43.97
2023-05-24T07:41:57.567Z,43.99
2023-05-24T07:42:57.625Z,44.00
2023-05-24T07:43:57.612Z,44.04
2023-05-24T07:44:57.631Z,43.99
2023-05-24T07:45:57.717Z,44.02
2023-05-24T07:46:57.736Z,43.56
2023-05-24T07:47:57.828Z,43.11
2023-05-24T07:48:57.771Z,43.09
2023-05-24T07:49:57.831Z,43.13
2023-05-24T07:50:57.941Z,43.35
2023-05-24T07:51:57.914Z,43.51
2023-05-24T07:52:58.217Z,43.65
2023-05-24T07:53:58.008Z,43.75
2023-05-24T07:54:58.087Z,43.78
2023-05-24T07:55:58.086Z,43.82
2023-05-24T07:56:58.136Z,44.15
2023-05-24T07:57:58.116Z,44.30
2023-05-24T07:58:58.142Z,44.30
2023-05-24T07:59:58.167Z,44.45
2023-05-24T08:00:58.165Z,44.36
2023-05-24T08:01:58.194Z,44.41
2023-05-24T08:02:58.298Z,43.97
2023-05-24T08:03:58.406Z,44.09
2023-05-24T08:04:58.308Z,44.01
2023-05-24T08:05:58.381Z,44.11
2023-05-24T08:06:58.508Z,44.01
2023-05-24T08:07:58.453Z,44.15
2023-05-24T08:08:58.533Z,44.13
2023-05-24T08:09:58.560Z,44.32
2023-05-24T08:10:58.595Z,44.46
2023-05-24T08:11:58.560Z,44.50
2023-05-24T08:12:58.570Z,44.53
2023-05-24T08:13:58.582Z,44.35
2023-05-24T08:14:58.645Z,44.27
2023-05-24T08:15:58.726Z,44.34
2023-05-24T08:16:58.739Z,44.35
2023-05-24T08:17:58.823Z,44.40
2023-05-24T08:18:58.768Z,44.43
2023-05-24T08:19:58.820Z,44.46
2023-05-24T08:20:58.788Z,44.71
2023-05-24T08:21:58.855Z,44.69
2023-05-24T08:22:58.894Z,44.89
2023-05-24T08:23:58.974Z,45.07
2023-05-24T08:24:59.014Z,45.50
2023-05-24T08:25:59.049Z,45.14
2023-05-24T08:26:59.103Z,45.33
2023-05-24T08:27:59.147Z,45.61
2023-05-24T08:28:59.177Z,45.14
2023-05-24T08:29:59.206Z,45.05
2023-05-24T08:30:59.208Z,45.09
2023-05-24T08:31:59.277Z,45.21
2023-05-24T08:32:59.292Z,45.22
2023-05-24T08:33:59.239Z,45.21
2023-05-24T08:35:11.109Z,45.29
2023-05-24T08:36:00.284Z,45.43
2023-05-24T08:36:59.267Z,45.54
2023-05-24T08:37:59.253Z,45.49
2023-05-24T08:38:59.245Z,45.62
2023-05-24T08:39:59.208Z,45.57
2023-05-24T08:40:59.201Z,45.88
2023-05-24T08:42:59.267Z,45.55
2023-05-24T08:43:59.207Z,45.31
2023-05-24T08:44:59.210Z,45.22
2023-05-24T08:45:59.235Z,45.12
2023-05-24T08:46:59.227Z,45.09
2023-05-24T08:47:59.337Z,45.05
2023-05-24T08:48:59.227Z,45.01
2023-05-24T08:49:59.187Z,44.95
2023-05-24T08:50:59.208Z,44.88
2023-05-24T08:51:59.181Z,44.82
2023-05-24T08:52:59.132Z,44.75
2023-05-24T08:53:59.152Z,44.68
2023-05-24T08:54:59.173Z,44.64
2023-05-24T08:55:59.125Z,44.57
2023-05-24T08:56:59.148Z,44.55
2023-05-24T08:57:59.106Z,44.51
2023-05-24T08:58:59.111Z,44.50
2023-05-24T08:59:59.089Z,44.50
2023-05-24T09:00:59.133Z,44.47
2023-05-24T09:01:59.148Z,44.54
2023-05-24T09:02:59.141Z,44.52
2023-05-24T09:03:59.149Z,44.54
2023-05-24T09:04:59.062Z,44.52
2023-05-24T09:05:59.071Z,44.52
2023-05-24T09:06:59.071Z,44.54
2023-05-24T09:07:59.024Z,44.51
2023-05-24T09:08:59.036Z,44.54
2023-05-24T09:09:59.030Z,44.50
2023-05-24T09:10:59.189Z,44.49
2023-05-24T09:11:59.000Z,44.48
2023-05-24T09:12:59.034Z,44.49
2023-05-24T09:13:58.985Z,44.47
2023-05-24T09:14:58.974Z,44.46
2023-05-24T09:15:59.065Z,44.48
2023-05-24T09:16:58.963Z,44.46
2023-05-24T09:17:59.051Z,44.49
2023-05-24T09:18:58.965Z,44.47
2023-05-24T09:19:59.066Z,44.47
2023-05-24T09:20:59.011Z,44.42
2023-05-24T09:21:59.146Z,44.48
2023-05-24T09:22:58.940Z,44.43
2023-05-24T09:23:58.939Z,44.44
2023-05-24T09:24:58.902Z,44.42
2023-05-24T09:25:58.903Z,44.44
2023-05-24T09:26:58.897Z,44.43
2023-05-24T09:27:58.906Z,44.42
2023-05-24T09:28:58.891Z,44.43
2023-05-24T09:29:58.857Z,44.42
2023-05-24T09:30:58.924Z,44.41
2023-05-24T09:31:59.026Z,44.42
2023-05-24T09:32:58.900Z,44.40
2023-05-24T09:33:58.842Z,44.38
2023-05-24T09:34:58.827Z,44.42
2023-05-24T09:35:58.792Z,44.42
2023-05-24T09:36:58.824Z,44.40
2023-05-24T09:37:58.826Z,44.40
2023-05-24T09:38:58.778Z,44.39
2023-05-24T09:39:58.802Z,44.39
2023-05-24T09:40:58.787Z,44.41
2023-05-24T09:41:58.772Z,44.37
2023-05-24T09:42:58.776Z,44.39
2023-05-24T09:43:58.765Z,44.36
2023-05-24T09:44:58.742Z,44.37
2023-05-24T09:45:58.750Z,44.38
2023-05-24T09:46:58.797Z,44.33
2023-05-24T09:47:58.805Z,44.37
2023-05-24T09:48:58.761Z,44.32
2023-05-24T09:49:58.748Z,44.36
2023-05-24T09:50:58.774Z,44.35
2023-05-24T09:51:59.188Z,44.32
2023-05-24T09:52:58.675Z,44.33
2023-05-24T09:53:58.698Z,44.33
2023-05-24T09:54:58.670Z,44.33
2023-05-24T09:55:59.671Z,44.32
2023-05-24T09:56:58.637Z,44.31
2023-05-24T09:57:58.643Z,44.31
2023-05-24T09:58:58.644Z,44.32
2023-05-24T09:59:58.642Z,44.30
2023-05-24T10:00:58.856Z,44.31
2023-05-24T10:01:58.670Z,44.29
2023-05-24T10:02:58.649Z,44.30
2023-05-24T10:03:58.721Z,44.28
2023-05-24T10:04:58.722Z,44.27
2023-05-24T10:05:58.607Z,44.27
2023-05-24T10:06:58.657Z,44.27
2023-05-24T10:07:58.754Z,44.23
2023-05-24T10:08:58.766Z,44.24
2023-05-24T10:09:58.818Z,44.24
2023-05-24T10:10:58.867Z,44.23
2023-05-24T10:11:58.929Z,44.25
2023-05-24T10:12:58.915Z,44.22
2023-05-24T10:13:58.984Z,44.25
2023-05-24T10:14:59.052Z,44.22
2023-05-24T10:15:59.076Z,44.23
2023-05-24T10:16:59.279Z,44.22
2023-05-24T10:17:59.223Z,44.22
2023-05-24T10:18:59.235Z,44.21
2023-05-24T10:19:59.347Z,44.22
2023-05-24T10:20:59.443Z,44.20
2023-05-24T10:21:59.369Z,44.23
2023-05-24T10:22:59.467Z,44.21
2023-05-24T10:23:59.491Z,44.21
2023-05-24T10:24:59.524Z,44.19
2023-05-24T10:25:59.618Z,44.17
2023-05-24T10:26:59.669Z,44.15
2023-05-24T10:27:59.755Z,44.16
2023-05-24T10:28:59.760Z,44.16
2023-05-24T10:29:59.841Z,44.15
2023-05-24T10:30:59.950Z,44.13
2023-05-24T10:31:59.946Z,44.12
2023-05-24T10:33:00.164Z,44.11
2023-05-24T10:34:07.276Z,44.12
2023-05-24T10:35:01.104Z,44.10
2023-05-24T10:36:00.040Z,44.09
2023-05-24T10:37:00.041Z,44.11
2023-05-24T10:38:00.064Z,44.12
2023-05-24T10:39:00.022Z,44.10
2023-05-24T10:40:00.080Z,44.09
2023-05-24T10:41:00.035Z,44.08
2023-05-24T10:42:00.647Z,44.08
2023-05-24T10:43:00.088Z,44.08
2023-05-24T10:44:08.652Z,44.09
2023-05-24T10:45:01.164Z,44.08
2023-05-24T10:46:00.352Z,44.05
2023-05-24T10:47:00.183Z,44.08
2023-05-24T10:48:00.206Z,44.08
2023-05-24T10:49:00.177Z,44.03
2023-05-24T10:50:00.256Z,44.03
2023-05-24T10:51:00.138Z,44.05
2023-05-24T10:52:00.135Z,44.04
2023-05-24T10:53:00.200Z,44.07
2023-05-24T10:54:00.264Z,44.04
2023-05-24T10:55:04.301Z,44.05
2023-05-24T10:56:00.398Z,44.05
2023-05-24T10:57:00.335Z,44.05
2023-05-24T10:58:00.327Z,44.05
2023-05-24T10:59:00.367Z,44.06
2023-05-24T11:00:00.281Z,44.04
2023-05-24T11:01:00.314Z,44.07
2023-05-24T11:02:00.780Z,44.05
2023-05-24T11:03:00.324Z,44.05
2023-05-24T11:04:00.285Z,44.07
2023-05-24T11:05:00.346Z,44.05
2023-05-24T11:06:00.494Z,44.04
2023-05-24T11:07:00.352Z,44.05
2023-05-24T11:08:00.456Z,44.06
2023-05-24T11:09:00.544Z,44.06
2023-05-24T11:10:00.592Z,44.07
2023-05-24T11:11:11.522Z,44.09
2023-05-24T11:12:01.629Z,44.09
2023-05-24T11:13:00.637Z,44.10
2023-05-24T11:14:00.645Z,44.11
2023-05-24T11:15:00.626Z,44.09
2023-05-24T11:16:00.664Z,44.10
2023-05-24T11:17:00.592Z,44.11
2023-05-24T11:18:00.715Z,44.10
2023-05-24T11:19:00.637Z,44.10
2023-05-24T11:20:00.727Z,44.14
2023-05-24T11:21:00.764Z,44.12
2023-05-24T11:22:00.830Z,44.13
2023-05-24T11:23:00.876Z,44.14
2023-05-24T11:24:00.983Z,44.13
2023-05-24T11:25:00.991Z,44.17
2023-05-24T11:26:01.069Z,44.16
2023-05-24T11:27:01.148Z,44.15
2023-05-24T11:28:01.213Z,44.18
2023-05-24T11:29:04.167Z,44.15
2023-05-24T11:30:01.283Z,44.17
2023-05-24T11:31:01.231Z,44.13
2023-05-24T11:32:01.361Z,44.14
2023-05-24T11:33:01.270Z,44.12
2023-05-24T11:34:01.233Z,44.13
2023-05-24T11:35:01.199Z,44.14
2023-05-24T11:36:01.251Z,44.11
2023-05-24T11:37:01.246Z,44.10
2023-05-24T11:38:01.205Z,44.09
2023-05-24T11:39:01.180Z,44.04
2023-05-24T11:40:01.205Z,44.06
2023-05-24T11:41:01.198Z,44.04
2023-05-24T11:42:01.201Z,44.03
2023-05-24T11:43:01.225Z,44.02
2023-05-24T11:44:01.127Z,44.03
2023-05-24T11:45:01.133Z,44.01
2023-05-24T11:46:01.133Z,44.03
2023-05-24T11:47:01.162Z,44.00
2023-05-24T11:48:01.189Z,44.01
2023-05-24T11:49:01.152Z,44.00
2023-05-24T11:50:01.119Z,44.00
2023-05-24T11:51:01.118Z,44.03
2023-05-24T11:52:01.115Z,44.06
2023-05-24T11:53:01.155Z,44.05
2023-05-24T11:54:01.180Z,43.99
2023-05-24T11:55:01.221Z,43.96
2023-05-24T11:56:01.309Z,44.00
2023-05-24T11:57:01.368Z,44.01
2023-05-24T11:58:01.409Z,44.02
2023-05-24T11:59:01.477Z,44.05
2023-05-24T12:00:01.566Z,44.06
2023-05-24T12:01:01.617Z,44.07
2023-05-24T12:02:01.964Z,44.09
2023-05-24T12:03:01.866Z,44.09
2023-05-24T12:04:01.856Z,44.09
2023-05-24T12:05:01.995Z,44.07
2023-05-24T12:06:01.946Z,44.06
2023-05-24T12:07:01.958Z,44.09
2023-05-24T12:08:02.019Z,44.09
2023-05-24T12:09:02.097Z,44.08
2023-05-24T12:10:02.184Z,44.11
2023-05-24T12:11:02.223Z,44.10
2023-05-24T12:12:02.266Z,44.11
2023-05-24T12:13:02.306Z,44.12
2023-05-24T12:14:02.351Z,44.09
2023-05-24T12:15:02.462Z,44.08
2023-05-24T12:16:02.554Z,44.04
2023-05-24T12:17:02.528Z,44.05
2023-05-24T12:18:02.601Z,44.07
2023-05-24T12:19:07.396Z,44.04
2023-05-24T12:20:03.657Z,44.05
2023-05-24T12:21:02.584Z,44.04
2023-05-24T12:22:02.597Z,44.05
2023-05-24T12:23:02.596Z,44.03
2023-05-24T12:24:02.598Z,44.04
2023-05-24T12:25:02.662Z,44.01
2023-05-24T12:26:02.573Z,44.04
2023-05-24T12:27:02.584Z,44.01
2023-05-24T12:28:02.577Z,44.01
2023-05-24T12:29:02.676Z,44.00
2023-05-24T12:30:02.668Z,44.02
2023-05-24T12:31:02.764Z,44.01
2023-05-24T12:32:02.870Z,43.99
2023-05-24T12:33:02.918Z,43.99
2023-05-24T12:34:02.898Z,44.02
2023-05-24T12:35:02.936Z,44.00
2023-05-24T12:36:03.032Z,43.98
2023-05-24T12:37:03.236Z,44.00
2023-05-24T12:38:03.135Z,43.99
2023-05-24T12:39:03.155Z,43.98
2023-05-24T12:40:03.159Z,43.99
2023-05-24T12:41:13.081Z,44.00
2023-05-24T12:42:04.277Z,43.98
2023-05-24T12:43:03.180Z,43.98
2023-05-24T12:44:03.190Z,43.96
2023-05-24T12:45:03.170Z,43.99
2023-05-24T12:46:03.180Z,43.96
2023-05-24T12:47:03.202Z,43.97
2023-05-24T12:48:03.236Z,43.95
2023-05-24T12:49:03.151Z,43.95
2023-05-24T12:50:03.155Z,43.96
2023-05-24T12:51:03.118Z,43.92
2023-05-24T12:52:03.187Z,43.94
2023-05-24T12:53:03.161Z,43.95
2023-05-24T12:54:03.187Z,43.94